createdAt,value
2023-04-30T00:00:00.398Z,14.24
2023-04-30T00:01:00.384Z,14.24
2023-04-30T00:02:00.556Z,14.24
2023-04-30T00:03:00.470Z,14.24
2023-04-30T00:04:00.602Z,14.24
2023-04-30T00:05:00.556Z,14.24
2023-04-30T00:06:00.513Z,14.24
2023-04-30T00:07:00.391Z,14.24
2023-04-30T00:08:00.407Z,14.24
2023-04-30T00:09:00.519Z,14.21
2023-04-30T00:10:00.524Z,14.21
2023-04-30T00:11:00.405Z,14.21
2023-04-30T00:12:00.404Z,14.21
2023-04-30T00:13:00.414Z,14.21
2023-04-30T00:14:00.387Z,14.16
2023-04-30T00:15:00.397Z,14.16
2023-04-30T00:16:00.571Z,14.16
2023-04-30T00:17:00.512Z,14.16
2023-04-30T00:18:00.674Z,14.16
2023-04-30T00:19:00.525Z,14.10
2023-04-30T00:20:00.405Z,14.10
2023-04-30T00:21:00.414Z,14.10
2023-04-30T00:22:00.396Z,14.10
2023-04-30T00:23:00.403Z,14.10
2023-04-30T00:24:00.402Z,14.09
2023-04-30T00:25:00.644Z,14.09
2023-04-30T00:26:00.390Z,14.09
2023-04-30T00:27:00.405Z,14.09
2023-04-30T00:28:00.516Z,14.09
2023-04-30T00:29:00.403Z,14.08
2023-04-30T00:30:00.396Z,14.08
2023-04-30T00:31:00.593Z,14.08
2023-04-30T00:32:00.425Z,14.08
2023-04-30T00:33:00.437Z,14.08
2023-04-30T00:34:00.395Z,13.98
2023-04-30T00:35:00.564Z,13.98
2023-04-30T00:36:00.403Z,13.98
2023-04-30T00:37:00.388Z,13.98
2023-04-30T00:38:00.404Z,13.98
2023-04-30T00:39:00.539Z,13.91
2023-04-30T00:40:00.401Z,13.91
2023-04-30T00:41:00.563Z,13.91
2023-04-30T00:42:00.391Z,13.91
2023-04-30T00:43:00.563Z,13.91
2023-04-30T00:44:00.630Z,13.82
2023-04-30T00:45:00.525Z,13.82
2023-04-30T00:46:00.404Z,13.82
2023-04-30T00:47:00.391Z,13.82
2023-04-30T00:48:00.532Z,13.82
2023-04-30T00:49:00.517Z,13.75
2023-04-30T00:50:00.586Z,13.75
2023-04-30T00:51:01.760Z,13.75
2023-04-30T00:52:00.526Z,13.75
2023-04-30T00:53:00.502Z,13.75
2023-04-30T00:54:01.206Z,13.73
2023-04-30T00:55:00.600Z,13.73
2023-04-30T00:56:00.395Z,13.73
2023-04-30T00:57:01.608Z,13.73
2023-04-30T00:58:00.600Z,13.73
2023-04-30T00:59:00.404Z,13.62
2023-04-30T01:00:00.731Z,13.62
2023-04-30T01:01:01.692Z,13.62
2023-04-30T01:02:01.512Z,13.62
2023-04-30T01:03:00.623Z,13.62
2023-04-30T01:04:00.512Z,13.53
2023-04-30T01:05:01.128Z,13.53
2023-04-30T01:06:00.853Z,13.53
2023-04-30T01:07:00.581Z,13.53
2023-04-30T01:08:00.501Z,13.53
2023-04-30T01:09:00.537Z,13.52
2023-04-30T01:10:00.812Z,13.52
2023-04-30T01:11:10.302Z,13.52
2023-04-30T01:12:10.303Z,13.52
2023-04-30T01:13:05.396Z,13.52
2023-04-30T01:14:06.432Z,13.44
2023-04-30T01:15:03.491Z,13.44
2023-04-30T01:16:06.703Z,13.44
2023-04-30T01:17:10.303Z,13.44
2023-04-30T01:18:03.749Z,13.44
2023-04-30T01:19:04.067Z,13.38
2023-04-30T01:20:00.590Z,13.38
2023-04-30T01:21:03.075Z,13.38
2023-04-30T01:22:02.344Z,13.38
2023-04-30T01:23:10.250Z,13.38
2023-04-30T01:24:10.307Z,13.36
2023-04-30T01:25:10.318Z,13.36
2023-04-30T01:26:10.321Z,13.36
2023-04-30T01:27:00.374Z,13.36
2023-04-30T01:28:04.504Z,13.36
2023-04-30T01:29:01.821Z,13.31
2023-04-30T01:30:00.787Z,13.31
2023-04-30T01:31:00.535Z,13.31
2023-04-30T01:32:00.767Z,13.31
2023-04-30T01:33:00.807Z,13.31
2023-04-30T01:34:00.382Z,13.26
2023-04-30T01:35:02.956Z,13.26
2023-04-30T01:36:10.314Z,13.26
2023-04-30T01:37:10.302Z,13.26
2023-04-30T01:38:03.627Z,13.26
2023-04-30T01:39:10.299Z,13.25
2023-04-30T01:40:03.637Z,13.25
2023-04-30T01:41:08.176Z,13.25
2023-04-30T01:42:06.437Z,13.25
2023-04-30T01:43:01.401Z,13.25
2023-04-30T01:44:00.389Z,13.25
2023-04-30T01:45:10.308Z,13.25
2023-04-30T01:46:10.320Z,13.25
2023-04-30T01:47:00.371Z,13.25
2023-04-30T01:48:07.758Z,13.25
2023-04-30T01:49:10.300Z,13.21
2023-04-30T01:50:10.314Z,13.21
2023-04-30T01:51:00.384Z,13.21
2023-04-30T01:52:10.311Z,13.21
2023-04-30T01:53:01.648Z,13.21
2023-04-30T01:54:04.889Z,13.19
2023-04-30T01:55:04.432Z,13.19
2023-04-30T01:56:03.398Z,13.19
2023-04-30T01:57:10.322Z,13.19
2023-04-30T01:58:02.127Z,13.19
2023-04-30T01:59:01.275Z,13.19
2023-04-30T02:00:00.599Z,13.19
2023-04-30T02:01:00.665Z,13.19
2023-04-30T02:02:00.832Z,13.19
2023-04-30T02:03:00.646Z,13.19
2023-04-30T02:04:00.715Z,13.16
2023-04-30T02:05:00.512Z,13.16
2023-04-30T02:06:00.457Z,13.16
2023-04-30T02:07:00.501Z,13.16
2023-04-30T02:08:00.393Z,13.16
2023-04-30T02:09:00.396Z,13.18
2023-04-30T02:10:00.398Z,13.18
2023-04-30T02:11:00.392Z,13.18
2023-04-30T02:12:00.395Z,13.18
2023-04-30T02:13:00.380Z,13.18
2023-04-30T02:14:00.400Z,13.18
2023-04-30T02:15:01.539Z,13.18
2023-04-30T02:16:00.446Z,13.18
2023-04-30T02:17:00.399Z,13.18
2023-04-30T02:18:00.594Z,13.18
2023-04-30T02:19:00.785Z,13.17
2023-04-30T02:20:00.559Z,13.17
2023-04-30T02:21:00.716Z,13.17
2023-04-30T02:22:00.386Z,13.17
2023-04-30T02:23:00.396Z,13.17
2023-04-30T02:24:00.377Z,13.18
2023-04-30T02:25:00.520Z,13.18
2023-04-30T02:26:00.393Z,13.18
2023-04-30T02:27:00.407Z,13.18
2023-04-30T02:28:00.401Z,13.18
2023-04-30T02:29:00.517Z,13.10
2023-04-30T02:30:00.637Z,13.10
2023-04-30T02:31:00.386Z,13.10
2023-04-30T02:32:00.565Z,13.10
2023-04-30T02:33:00.660Z,13.10
2023-04-30T02:34:00.406Z,13.09
2023-04-30T02:35:00.585Z,13.09
2023-04-30T02:36:00.586Z,13.09
2023-04-30T02:37:00.391Z,13.09
2023-04-30T02:38:00.396Z,13.09
2023-04-30T02:39:00.401Z,13.10
2023-04-30T02:40:00.529Z,13.10
2023-04-30T02:41:00.507Z,13.10
2023-04-30T02:42:00.502Z,13.10
2023-04-30T02:43:00.373Z,13.10
2023-04-30T02:44:00.382Z,13.11
2023-04-30T02:45:00.374Z,13.11
2023-04-30T02:46:00.454Z,13.11
2023-04-30T02:47:00.676Z,13.11
2023-04-30T02:48:00.396Z,13.11
2023-04-30T02:49:00.375Z,13.09
2023-04-30T02:50:00.564Z,13.09
2023-04-30T02:51:00.386Z,13.09
2023-04-30T02:52:00.519Z,13.09
2023-04-30T02:53:00.384Z,13.09
2023-04-30T02:54:00.516Z,13.09
2023-04-30T02:55:00.391Z,13.09
2023-04-30T02:56:00.502Z,13.09
2023-04-30T02:57:00.382Z,13.09
2023-04-30T02:58:00.528Z,13.09
2023-04-30T02:59:00.578Z,13.09
2023-04-30T03:00:00.408Z,13.09
2023-04-30T03:01:00.398Z,13.09
2023-04-30T03:02:00.386Z,13.09
2023-04-30T03:03:00.567Z,13.09
2023-04-30T03:04:00.388Z,13.05
2023-04-30T03:05:00.387Z,13.05
2023-04-30T03:06:00.408Z,13.05
2023-04-30T03:07:00.362Z,13.05
2023-04-30T03:08:00.380Z,13.05
2023-04-30T03:09:00.510Z,12.98
2023-04-30T03:10:00.379Z,12.98
2023-04-30T03:11:00.497Z,12.98
2023-04-30T03:12:00.412Z,12.98
2023-04-30T03:13:00.359Z,12.98
2023-04-30T03:14:00.386Z,12.95
2023-04-30T03:15:00.383Z,12.95
2023-04-30T03:16:01.334Z,12.95
2023-04-30T03:17:00.374Z,12.95
2023-04-30T03:18:00.398Z,12.95
2023-04-30T03:19:00.540Z,12.84
2023-04-30T03:20:00.683Z,12.84
2023-04-30T03:21:00.583Z,12.84
2023-04-30T03:22:00.379Z,12.84
2023-04-30T03:23:00.511Z,12.84
2023-04-30T03:24:00.392Z,12.75
2023-04-30T03:25:00.384Z,12.75
2023-04-30T03:26:00.409Z,12.75
2023-04-30T03:27:00.607Z,12.75
2023-04-30T03:28:00.385Z,12.75
2023-04-30T03:29:00.386Z,12.74
2023-04-30T03:30:00.397Z,12.74
2023-04-30T03:31:00.967Z,12.74
2023-04-30T03:32:00.444Z,12.74
2023-04-30T03:33:00.440Z,12.74
2023-04-30T03:34:00.487Z,12.67
2023-04-30T03:35:00.371Z,12.67
2023-04-30T03:36:00.376Z,12.67
2023-04-30T03:37:00.369Z,12.67
2023-04-30T03:38:00.912Z,12.67
2023-04-30T03:39:00.671Z,12.61
2023-04-30T03:40:00.386Z,12.61
2023-04-30T03:41:00.390Z,12.61
2023-04-30T03:42:00.421Z,12.61
2023-04-30T03:43:00.403Z,12.61
2023-04-30T03:44:00.393Z,12.54
2023-04-30T03:45:00.390Z,12.54
2023-04-30T03:46:00.630Z,12.54
2023-04-30T03:47:00.612Z,12.54
2023-04-30T03:48:00.671Z,12.54
2023-04-30T03:49:00.398Z,12.49
2023-04-30T03:50:00.386Z,12.49
2023-04-30T03:51:00.528Z,12.49
2023-04-30T03:52:00.385Z,12.49
2023-04-30T03:53:00.646Z,12.49
2023-04-30T03:54:00.403Z,12.40
2023-04-30T03:55:00.395Z,12.40
2023-04-30T03:56:00.937Z,12.40
2023-04-30T03:57:00.768Z,12.40
2023-04-30T03:58:00.625Z,12.40
2023-04-30T03:59:00.549Z,12.33
2023-04-30T04:00:00.545Z,12.33
2023-04-30T04:01:00.396Z,12.33
2023-04-30T04:02:00.580Z,12.33
2023-04-30T04:03:00.562Z,12.33
2023-04-30T04:04:00.676Z,12.23
2023-04-30T04:05:00.709Z,12.23
2023-04-30T04:06:00.429Z,12.23
2023-04-30T04:07:00.520Z,12.23
2023-04-30T04:08:00.394Z,12.23
2023-04-30T04:09:00.381Z,12.12
2023-04-30T04:10:00.508Z,12.12
2023-04-30T04:11:00.518Z,12.12
2023-04-30T04:12:00.399Z,12.12
2023-04-30T04:13:00.543Z,12.12
2023-04-30T04:14:00.396Z,12.03
2023-04-30T04:15:00.405Z,12.03
2023-04-30T04:16:00.463Z,12.03
2023-04-30T04:17:00.614Z,12.03
2023-04-30T04:18:00.546Z,12.03
2023-04-30T04:19:00.391Z,11.94
2023-04-30T04:20:00.384Z,11.94
2023-04-30T04:21:00.524Z,11.94
2023-04-30T04:22:00.407Z,11.94
2023-04-30T04:23:00.568Z,11.94
2023-04-30T04:24:00.406Z,11.86
2023-04-30T04:25:00.505Z,11.86
2023-04-30T04:26:00.566Z,11.86
2023-04-30T04:27:00.398Z,11.86
2023-04-30T04:28:00.371Z,11.86
2023-04-30T04:29:00.706Z,11.78
2023-04-30T04:30:01.196Z,11.78
2023-04-30T04:31:00.560Z,11.78
2023-04-30T04:32:00.647Z,11.78
2023-04-30T04:33:00.544Z,11.78
2023-04-30T04:34:02.157Z,11.74
2023-04-30T04:35:00.530Z,11.74
2023-04-30T04:36:00.393Z,11.74
2023-04-30T04:37:00.530Z,11.74
2023-04-30T04:38:00.728Z,11.74
2023-04-30T04:39:00.591Z,11.74
2023-04-30T04:40:00.390Z,11.74
2023-04-30T04:41:00.390Z,11.74
2023-04-30T04:42:00.394Z,11.74
2023-04-30T04:43:00.384Z,11.74
2023-04-30T04:44:00.606Z,11.72
2023-04-30T04:45:00.538Z,11.72
2023-04-30T04:46:00.385Z,11.72
2023-04-30T04:47:00.387Z,11.72
2023-04-30T04:48:00.578Z,11.72
2023-04-30T04:49:00.387Z,11.70
2023-04-30T04:50:00.397Z,11.70
2023-04-30T04:51:00.513Z,11.70
2023-04-30T04:52:00.397Z,11.70
2023-04-30T04:53:00.586Z,11.70
2023-04-30T04:54:00.635Z,11.64
2023-04-30T04:55:00.553Z,11.64
2023-04-30T04:56:00.517Z,11.64
2023-04-30T04:57:00.548Z,11.64
2023-04-30T04:58:00.748Z,11.64
2023-04-30T04:59:00.722Z,11.61
2023-04-30T05:00:00.607Z,11.61
2023-04-30T05:01:00.388Z,11.61
2023-04-30T05:02:00.677Z,11.61
2023-04-30T05:03:00.454Z,11.61
2023-04-30T05:04:00.492Z,11.61
2023-04-30T05:05:00.547Z,11.61
2023-04-30T05:06:00.614Z,11.61
2023-04-30T05:07:00.506Z,11.61
2023-04-30T05:08:00.506Z,11.61
2023-04-30T05:09:00.809Z,11.65
2023-04-30T05:10:00.390Z,11.65
2023-04-30T05:11:00.411Z,11.65
2023-04-30T05:12:00.378Z,11.65
2023-04-30T05:13:00.532Z,11.65
2023-04-30T05:14:00.386Z,11.67
2023-04-30T05:15:00.409Z,11.67
2023-04-30T05:16:00.550Z,11.67
2023-04-30T05:17:00.391Z,11.67
2023-04-30T05:18:00.426Z,11.67
2023-04-30T05:19:00.379Z,11.70
2023-04-30T05:20:00.399Z,11.70
2023-04-30T05:21:00.394Z,11.70
2023-04-30T05:22:00.570Z,11.70
2023-04-30T05:23:01.621Z,11.70
2023-04-30T05:24:00.538Z,11.77
2023-04-30T05:25:00.582Z,11.77
2023-04-30T05:26:00.504Z,11.77
2023-04-30T05:27:00.590Z,11.77
2023-04-30T05:28:00.507Z,11.77
2023-04-30T05:29:00.382Z,11.83
2023-04-30T05:30:00.627Z,11.83
2023-04-30T05:31:00.520Z,11.83
2023-04-30T05:32:00.829Z,11.83
2023-04-30T05:33:00.425Z,11.83
2023-04-30T05:34:00.391Z,11.88
2023-04-30T05:35:00.550Z,11.88
2023-04-30T05:36:00.680Z,11.88
2023-04-30T05:37:01.432Z,11.88
2023-04-30T05:38:00.810Z,11.88
2023-04-30T05:39:00.395Z,11.99
2023-04-30T05:40:00.391Z,11.99
2023-04-30T05:41:00.398Z,11.99
2023-04-30T05:42:00.405Z,11.99
2023-04-30T05:43:00.394Z,11.99
2023-04-30T05:44:00.675Z,12.10
2023-04-30T05:45:00.942Z,12.10
2023-04-30T05:46:00.431Z,12.10
2023-04-30T05:47:00.390Z,12.10
2023-04-30T05:48:00.456Z,12.10
2023-04-30T05:49:00.581Z,12.17
2023-04-30T05:50:00.497Z,12.17
2023-04-30T05:51:00.478Z,12.17
2023-04-30T05:52:00.407Z,12.17
2023-04-30T05:53:00.405Z,12.17
2023-04-30T05:54:00.756Z,12.30
2023-04-30T05:55:00.510Z,12.30
2023-04-30T05:56:00.395Z,12.30
2023-04-30T05:57:00.378Z,12.30
2023-04-30T05:58:00.372Z,12.30
2023-04-30T05:59:00.393Z,12.39
2023-04-30T06:00:00.405Z,12.39
2023-04-30T06:01:00.397Z,12.39
2023-04-30T06:02:00.446Z,12.39
2023-04-30T06:03:00.645Z,12.39
2023-04-30T06:04:00.367Z,12.65
2023-04-30T06:05:00.457Z,12.65
2023-04-30T06:06:00.426Z,12.65
2023-04-30T06:07:00.390Z,12.65
2023-04-30T06:08:00.408Z,12.65
2023-04-30T06:09:00.577Z,12.99
2023-04-30T06:10:00.523Z,12.99
2023-04-30T06:11:00.403Z,12.99
2023-04-30T06:12:00.656Z,12.99
2023-04-30T06:13:00.510Z,12.99
2023-04-30T06:14:00.402Z,14.09
2023-04-30T06:15:00.398Z,14.09
2023-04-30T06:16:00.559Z,14.09
2023-04-30T06:17:00.456Z,14.09
2023-04-30T06:18:00.492Z,14.09
2023-04-30T06:19:00.405Z,14.25
2023-04-30T06:20:00.391Z,14.25
2023-04-30T06:21:00.649Z,14.25
2023-04-30T06:22:00.524Z,14.25
2023-04-30T06:23:00.383Z,14.25
2023-04-30T06:24:00.391Z,14.73
2023-04-30T06:25:00.381Z,14.73
2023-04-30T06:26:00.408Z,14.73
2023-04-30T06:27:00.402Z,14.73
2023-04-30T06:28:00.404Z,14.73
2023-04-30T06:29:00.580Z,15.44
2023-04-30T06:30:00.604Z,15.44
2023-04-30T06:31:00.588Z,15.44
2023-04-30T06:32:00.398Z,15.44
2023-04-30T06:33:00.638Z,15.44
2023-04-30T06:34:00.719Z,16.46
2023-04-30T06:35:00.515Z,16.46
2023-04-30T06:36:00.404Z,16.46
2023-04-30T06:37:00.376Z,16.46
2023-04-30T06:38:00.398Z,16.46
2023-04-30T06:39:00.397Z,17.17
2023-04-30T06:40:00.598Z,17.17
2023-04-30T06:41:00.499Z,17.17
2023-04-30T06:42:00.570Z,17.17
2023-04-30T06:43:00.410Z,17.17
2023-04-30T06:44:01.596Z,17.79
2023-04-30T06:45:00.884Z,17.79
2023-04-30T06:46:00.433Z,17.79
2023-04-30T06:47:00.387Z,17.79
2023-04-30T06:48:00.658Z,17.79
2023-04-30T06:49:00.395Z,17.12
2023-04-30T06:50:00.750Z,17.12
2023-04-30T06:51:00.381Z,17.12
2023-04-30T06:52:00.391Z,17.12
2023-04-30T06:53:00.401Z,17.12
2023-04-30T06:54:00.516Z,16.22
2023-04-30T06:55:00.806Z,16.22
2023-04-30T06:56:00.542Z,16.22
2023-04-30T06:57:00.393Z,16.22
2023-04-30T06:58:00.396Z,16.22
2023-04-30T06:59:00.391Z,15.55
2023-04-30T07:00:00.510Z,15.55
2023-04-30T07:01:00.383Z,15.55
2023-04-30T07:02:00.603Z,15.55
2023-04-30T07:03:00.490Z,15.55
2023-04-30T07:04:00.658Z,15.23
2023-04-30T07:05:00.515Z,15.23
2023-04-30T07:06:00.659Z,15.23
2023-04-30T07:07:00.393Z,15.23
2023-04-30T07:08:00.886Z,15.23
2023-04-30T07:09:01.211Z,15.06
2023-04-30T07:10:00.412Z,15.06
2023-04-30T07:11:00.507Z,15.06
2023-04-30T07:12:00.406Z,15.06
2023-04-30T07:13:00.402Z,15.06
2023-04-30T07:14:00.401Z,14.72
2023-04-30T07:15:00.399Z,14.72
2023-04-30T07:16:00.541Z,14.72
2023-04-30T07:17:00.386Z,14.72
2023-04-30T07:18:00.457Z,14.72
2023-04-30T07:19:00.577Z,14.71
2023-04-30T07:20:00.383Z,14.71
2023-04-30T07:21:00.370Z,14.71
2023-04-30T07:22:00.590Z,14.71
2023-04-30T07:23:00.395Z,14.71
2023-04-30T07:24:00.387Z,14.77
2023-04-30T07:25:00.601Z,14.77
2023-04-30T07:26:00.393Z,14.77
2023-04-30T07:27:00.377Z,14.77
2023-04-30T07:28:00.516Z,14.77
2023-04-30T07:29:00.376Z,14.68
2023-04-30T07:30:00.537Z,14.68
2023-04-30T07:31:00.406Z,14.68
2023-04-30T07:32:00.453Z,14.68
2023-04-30T07:33:00.612Z,14.68
2023-04-30T07:34:00.394Z,14.69
2023-04-30T07:35:00.396Z,14.69
2023-04-30T07:36:00.680Z,14.69
2023-04-30T07:37:00.369Z,14.69
2023-04-30T07:38:00.408Z,14.69
2023-04-30T07:39:00.397Z,14.78
2023-04-30T07:40:00.396Z,14.78
2023-04-30T07:41:00.555Z,14.78
2023-04-30T07:42:00.390Z,14.78
2023-04-30T07:43:00.574Z,14.78
2023-04-30T07:44:00.619Z,14.83
2023-04-30T07:45:00.368Z,14.83
2023-04-30T07:46:00.626Z,14.83
2023-04-30T07:47:00.382Z,14.83
2023-04-30T07:48:00.643Z,14.83
2023-04-30T07:49:00.384Z,14.92
2023-04-30T07:50:00.590Z,14.92
2023-04-30T07:51:00.427Z,14.92
2023-04-30T07:52:00.503Z,14.92
2023-04-30T07:53:00.540Z,14.92
2023-04-30T07:54:00.682Z,15.02
2023-04-30T07:55:00.393Z,15.02
2023-04-30T07:56:00.517Z,15.02
2023-04-30T07:57:00.510Z,15.02
2023-04-30T07:58:00.508Z,15.02
2023-04-30T07:59:00.508Z,15.18
2023-04-30T08:00:00.547Z,15.18
2023-04-30T08:01:00.391Z,15.18
2023-04-30T08:02:00.418Z,15.18
2023-04-30T08:03:00.853Z,15.18
2023-04-30T08:04:00.514Z,15.21
2023-04-30T08:05:00.648Z,15.21
2023-04-30T08:06:00.545Z,15.21
2023-04-30T08:07:00.404Z,15.21
2023-04-30T08:08:00.588Z,15.21
2023-04-30T08:09:00.654Z,15.30
2023-04-30T08:10:00.552Z,15.30
2023-04-30T08:11:00.513Z,15.30
2023-04-30T08:12:00.893Z,15.30
2023-04-30T08:13:00.592Z,15.30
2023-04-30T08:14:00.586Z,15.44
2023-04-30T08:15:01.601Z,15.44
2023-04-30T08:16:00.528Z,15.44
2023-04-30T08:17:00.461Z,15.44
2023-04-30T08:18:01.429Z,15.44
2023-04-30T08:19:00.608Z,15.57
2023-04-30T08:20:00.728Z,15.57
2023-04-30T08:21:00.514Z,15.57
2023-04-30T08:22:00.565Z,15.57
2023-04-30T08:23:00.577Z,15.57
2023-04-30T08:24:00.613Z,15.75
2023-04-30T08:25:00.517Z,15.75
2023-04-30T08:26:00.615Z,15.75
2023-04-30T08:27:00.540Z,15.75
2023-04-30T08:28:00.545Z,15.75
2023-04-30T08:29:00.534Z,15.86
2023-04-30T08:30:00.536Z,15.86
2023-04-30T08:31:00.573Z,15.86
2023-04-30T08:32:02.089Z,15.86
2023-04-30T08:33:02.099Z,15.86
2023-04-30T08:34:00.381Z,15.89
2023-04-30T08:35:00.593Z,15.89
2023-04-30T08:36:00.443Z,15.89
2023-04-30T08:37:00.406Z,15.89
2023-04-30T08:38:00.570Z,15.89
2023-04-30T08:39:00.381Z,15.91
2023-04-30T08:40:00.394Z,15.91
2023-04-30T08:41:10.307Z,15.91
2023-04-30T08:42:02.908Z,15.91
2023-04-30T08:43:08.456Z,15.91
2023-04-30T08:44:01.546Z,16.02
2023-04-30T08:45:01.363Z,16.02
2023-04-30T08:46:00.807Z,16.02
2023-04-30T08:47:01.470Z,16.02
2023-04-30T08:48:01.721Z,16.02
2023-04-30T08:49:00.619Z,16.12
2023-04-30T08:50:00.391Z,16.12
2023-04-30T08:51:00.992Z,16.12
2023-04-30T08:52:00.504Z,16.12
2023-04-30T08:53:00.386Z,16.12
2023-04-30T08:54:00.528Z,16.25
2023-04-30T08:55:00.817Z,16.25
2023-04-30T08:56:00.572Z,16.25
2023-04-30T08:57:00.590Z,16.25
2023-04-30T08:58:00.388Z,16.25
2023-04-30T08:59:00.402Z,16.23
2023-04-30T09:00:00.546Z,16.23
2023-04-30T09:01:00.568Z,16.23
2023-04-30T09:02:00.593Z,16.23
2023-04-30T09:03:00.673Z,16.23
2023-04-30T09:04:02.469Z,16.35
2023-04-30T09:05:00.585Z,16.35
2023-04-30T09:06:00.420Z,16.35
2023-04-30T09:07:01.663Z,16.35
2023-04-30T09:08:04.106Z,16.35
2023-04-30T09:09:08.129Z,16.37
2023-04-30T09:10:00.508Z,16.37
2023-04-30T09:11:00.395Z,16.37
2023-04-30T09:12:10.302Z,16.37
2023-04-30T09:13:01.815Z,16.37
2023-04-30T09:14:00.937Z,16.41
2023-04-30T09:15:01.606Z,16.41
2023-04-30T09:16:00.568Z,16.41
2023-04-30T09:17:00.519Z,16.41
2023-04-30T09:18:10.336Z,16.41
2023-04-30T09:19:00.517Z,16.38
2023-04-30T09:20:08.777Z,16.38
2023-04-30T09:21:00.756Z,16.38
2023-04-30T09:22:10.287Z,16.38
2023-04-30T09:23:08.691Z,16.38
2023-04-30T09:24:01.114Z,16.47
2023-04-30T09:25:00.389Z,16.47
2023-04-30T09:26:00.386Z,16.47
2023-04-30T09:27:10.316Z,16.47
2023-04-30T09:28:10.301Z,16.47
2023-04-30T09:29:00.677Z,16.44
2023-04-30T09:30:00.663Z,16.44
2023-04-30T09:31:00.535Z,16.44
2023-04-30T09:32:07.095Z,16.44
2023-04-30T09:33:00.494Z,16.44
2023-04-30T09:34:00.391Z,16.55
2023-04-30T09:35:00.400Z,16.55
2023-04-30T09:36:07.459Z,16.55
2023-04-30T09:37:00.376Z,16.55
2023-04-30T09:38:00.852Z,16.55
2023-04-30T09:39:10.330Z,16.72
2023-04-30T09:40:00.548Z,16.72
2023-04-30T09:41:00.861Z,16.72
2023-04-30T09:42:10.306Z,16.72
2023-04-30T09:43:00.505Z,16.72
2023-04-30T09:44:00.703Z,16.79
2023-04-30T09:45:00.514Z,16.79
2023-04-30T09:46:00.632Z,16.79
2023-04-30T09:47:00.610Z,16.79
2023-04-30T09:48:15.817Z,16.79
2023-04-30T09:49:01.202Z,16.95
2023-04-30T09:50:00.491Z,16.95
2023-04-30T09:51:02.198Z,16.95
2023-04-30T09:52:00.504Z,16.95
2023-04-30T09:53:05.136Z,16.95
2023-04-30T09:54:01.790Z,16.96
2023-04-30T09:55:00.640Z,16.96
2023-04-30T09:56:01.741Z,16.96
2023-04-30T09:57:01.144Z,16.96
2023-04-30T09:58:02.571Z,16.96
2023-04-30T09:59:02.111Z,16.84
2023-04-30T10:00:00.762Z,16.84
2023-04-30T10:01:02.990Z,16.84
2023-04-30T10:02:02.141Z,16.84
2023-04-30T10:03:08.635Z,16.84
2023-04-30T10:04:00.638Z,16.86
2023-04-30T10:05:00.601Z,16.86
2023-04-30T10:06:00.441Z,16.86
2023-04-30T10:07:02.771Z,16.86
2023-04-30T10:08:00.544Z,16.86
2023-04-30T10:09:02.503Z,16.97
2023-04-30T10:10:08.767Z,16.97
2023-04-30T10:11:02.068Z,16.97
2023-04-30T10:12:02.092Z,16.97
2023-04-30T10:13:03.176Z,16.97
2023-04-30T10:14:02.634Z,17.06
2023-04-30T10:15:05.231Z,17.06
2023-04-30T10:16:06.353Z,17.06
2023-04-30T10:17:06.606Z,17.06
2023-04-30T10:18:03.709Z,17.06
2023-04-30T10:19:04.675Z,17.09
2023-04-30T10:20:02.483Z,17.09
2023-04-30T10:21:02.262Z,17.09
2023-04-30T10:22:00.749Z,17.09
2023-04-30T10:23:00.584Z,17.09
2023-04-30T10:24:00.585Z,17.20
2023-04-30T10:25:00.613Z,17.20
2023-04-30T10:26:00.670Z,17.20
2023-04-30T10:27:00.548Z,17.20
2023-04-30T10:28:02.009Z,17.20
2023-04-30T10:29:01.405Z,17.18
2023-04-30T10:30:01.437Z,17.18
2023-04-30T10:31:00.617Z,17.18
2023-04-30T10:32:00.674Z,17.18
2023-04-30T10:33:10.360Z,17.18
2023-04-30T10:34:03.642Z,17.23
2023-04-30T10:35:08.836Z,17.23
2023-04-30T10:36:01.996Z,17.23
2023-04-30T10:37:03.870Z,17.23
2023-04-30T10:38:06.915Z,17.23
2023-04-30T10:39:00.793Z,17.49
2023-04-30T10:40:00.552Z,17.49
2023-04-30T10:41:00.971Z,17.49
2023-04-30T10:42:02.303Z,17.49
2023-04-30T10:43:00.391Z,17.49
2023-04-30T10:44:02.162Z,17.47
2023-04-30T10:45:01.395Z,17.47
2023-04-30T10:46:01.377Z,17.47
2023-04-30T10:47:00.609Z,17.47
2023-04-30T10:48:01.301Z,17.47
2023-04-30T10:49:00.563Z,17.47
2023-04-30T10:50:02.268Z,17.47
2023-04-30T10:51:00.698Z,17.47
2023-04-30T10:52:01.405Z,17.47
2023-04-30T10:53:00.863Z,17.47
2023-04-30T10:54:00.548Z,17.60
2023-04-30T10:55:03.784Z,17.60
2023-04-30T10:56:02.000Z,17.60
2023-04-30T10:57:08.529Z,17.60
2023-04-30T10:58:00.394Z,17.60
2023-04-30T10:59:00.646Z,17.70
2023-04-30T11:00:07.744Z,17.70
2023-04-30T11:01:01.998Z,17.70
2023-04-30T11:02:00.776Z,17.70
2023-04-30T11:03:03.576Z,17.70
2023-04-30T11:04:04.638Z,17.66
2023-04-30T11:05:08.056Z,17.66
2023-04-30T11:06:06.676Z,17.66
2023-04-30T11:07:01.668Z,17.66
2023-04-30T11:08:00.544Z,17.66
2023-04-30T11:09:02.705Z,17.69
2023-04-30T11:10:01.037Z,17.69
2023-04-30T11:11:00.517Z,17.69
2023-04-30T11:12:01.184Z,17.69
2023-04-30T11:13:05.416Z,17.69
2023-04-30T11:14:00.645Z,17.84
2023-04-30T11:15:10.305Z,17.84
2023-04-30T11:16:01.759Z,17.84
2023-04-30T11:17:00.589Z,17.84
2023-04-30T11:18:00.563Z,17.84
2023-04-30T11:19:11.530Z,17.89
2023-04-30T11:20:00.635Z,17.89
2023-04-30T11:21:00.925Z,17.89
2023-04-30T11:22:03.687Z,17.89
2023-04-30T11:23:10.311Z,17.89
2023-04-30T11:24:02.211Z,17.94
2023-04-30T11:25:02.960Z,17.94
2023-04-30T11:26:00.609Z,17.94
2023-04-30T11:27:04.202Z,17.94
2023-04-30T11:28:00.939Z,17.94
2023-04-30T11:29:01.407Z,17.95
2023-04-30T11:30:01.190Z,17.95
2023-04-30T11:31:00.539Z,17.95
2023-04-30T11:32:00.528Z,17.95
2023-04-30T11:33:00.573Z,17.95
2023-04-30T11:34:00.594Z,17.93
2023-04-30T11:35:01.132Z,17.93
2023-04-30T11:36:00.867Z,17.93
2023-04-30T11:37:02.010Z,17.93
2023-04-30T11:38:00.651Z,17.93
2023-04-30T11:39:00.608Z,18.04
2023-04-30T11:40:01.766Z,18.04
2023-04-30T11:41:01.156Z,18.04
2023-04-30T11:42:00.934Z,18.04
2023-04-30T11:43:00.387Z,18.04
2023-04-30T11:44:00.412Z,18.22
2023-04-30T11:45:02.089Z,18.22
2023-04-30T11:46:01.001Z,18.22
2023-04-30T11:47:00.712Z,18.22
2023-04-30T11:48:00.659Z,18.22
2023-04-30T11:49:00.394Z,18.37
2023-04-30T11:50:00.401Z,18.37
2023-04-30T11:51:10.312Z,18.37
2023-04-30T11:52:00.388Z,18.37
2023-04-30T11:53:00.509Z,18.37
2023-04-30T11:54:00.511Z,18.55
2023-04-30T11:55:04.006Z,18.55
2023-04-30T11:56:01.775Z,18.55
2023-04-30T11:57:00.509Z,18.55
2023-04-30T11:58:00.403Z,18.55
2023-04-30T11:59:00.382Z,18.53
2023-04-30T12:00:06.713Z,18.53
2023-04-30T12:01:00.617Z,18.53
2023-04-30T12:02:00.572Z,18.53
2023-04-30T12:03:00.908Z,18.53
2023-04-30T12:04:00.585Z,18.63
2023-04-30T12:05:00.513Z,18.63
2023-04-30T12:06:00.512Z,18.63
2023-04-30T12:07:00.512Z,18.63
2023-04-30T12:08:01.128Z,18.63
2023-04-30T12:09:01.174Z,18.77
2023-04-30T12:10:00.385Z,18.77
2023-04-30T12:11:00.401Z,18.77
2023-04-30T12:12:00.382Z,18.77
2023-04-30T12:13:01.078Z,18.77
2023-04-30T12:14:01.537Z,18.86
2023-04-30T12:15:09.242Z,18.86
2023-04-30T12:16:00.390Z,18.86
2023-04-30T12:17:00.503Z,18.86
2023-04-30T12:18:09.892Z,18.86
2023-04-30T12:19:00.387Z,18.93
2023-04-30T12:20:00.587Z,18.93
2023-04-30T12:21:00.525Z,18.93
2023-04-30T12:22:00.551Z,18.93
2023-04-30T12:23:00.593Z,18.93
2023-04-30T12:24:03.234Z,18.83
2023-04-30T12:25:04.418Z,18.83
2023-04-30T12:26:00.578Z,18.83
2023-04-30T12:27:00.510Z,18.83
2023-04-30T12:28:00.507Z,18.83
2023-04-30T12:29:02.380Z,18.72
2023-04-30T12:30:08.280Z,18.72
2023-04-30T12:31:00.506Z,18.72
2023-04-30T12:32:00.426Z,18.72
2023-04-30T12:33:00.587Z,18.72
2023-04-30T12:34:04.671Z,18.68
2023-04-30T12:35:00.668Z,18.68
2023-04-30T12:36:00.594Z,18.68
2023-04-30T12:37:00.827Z,18.68
2023-04-30T12:38:02.195Z,18.68
2023-04-30T12:39:01.468Z,18.61
2023-04-30T12:40:00.502Z,18.61
2023-04-30T12:41:03.653Z,18.61
2023-04-30T12:42:00.397Z,18.61
2023-04-30T12:43:01.041Z,18.61
2023-04-30T12:44:10.304Z,18.62
2023-04-30T12:45:00.510Z,18.62
2023-04-30T12:46:00.613Z,18.62
2023-04-30T12:47:05.736Z,18.62
2023-04-30T12:48:00.561Z,18.62
2023-04-30T12:49:00.405Z,18.59
2023-04-30T12:50:00.550Z,18.59
2023-04-30T12:51:01.374Z,18.59
2023-04-30T12:52:01.954Z,18.59